Airfield :
LOGIN :

Register | Disclaimer

   EN    FR    IT 

 










Legend :    VFR   Marginal VFR   IFR   Intensive IFR   Very Intensive IFR
Visi :
Ceiling :
>= 8 km
>= 3000ft
5 to 8 km
1000 to 3000 ft
1500m to 5 km
500 to 1000 ft
800 to 1500m
200 to 500 ft
< 800m
< 200 ft
Symbols :   Thunderstorms  Fog  Heavy snow  Heavy precipitations  Wind > 20 kt
SIGMETs :     Misc.  Thunderstorms  Icing  Turbulence  Mountain Waves  Volcanic Ashes






- Airport Elevation : -13 ft
- IATA code : LEY


EHLE - Lelystad

CURRENT METAR :
  • 060025Z AUTO 11007KT 9999 NSC 01/M01 Q1002

EXPIRED METARs :
  • 052355Z AUTO 10007KT 070V140 9999 NSC 01/M01 Q1002
  • 052325Z AUTO 10006KT 9999 NCD 01/M00 Q1002
  • 052255Z AUTO 11005KT 9999 NSC 01/M00 Q1002
  • 052225Z AUTO 11003KT 9999 FEW039 01/M00 Q1001
  • 052155Z AUTO 12004KT 9999 BKN039 01/00 Q1001

TAF TAF EHLE
Valid from the 06 at 00:00 until the 07 at 06:00 UTC


052244Z 0600/0706 12006KT CAVOK
BECMG 0600/0603 07005KT 5000 BR
PROB30 0603/0608 1400 BCFG
BECMG 0608/0611 8000 NSW
BECMG 0615/0618 34005KT 4000 BR
BECMG 0620/0623 2500 DZRA BKN014
TEMPO 0703/0706 4000 RA BKN009



MET'MAP, your aeronautical weather chart ! - Copyright ORBIFLY December 2007 - Disclaimer

ORBIFLY MET'MAP TEAM :

Programming & Development : Alexandra Zaïnal
Concept & original design : Baudouin d'Aumeries
Assistance for programming : Marc-Olivier Méhu
Technical & hardware support : Manuel Goepfert

Contact : metmap@orbifly.com




SOURCES & CREDITS :

   NOAA